Time;durP1;ratioP1;P1;durP2;ratioP2;P2;SDS_P1;SDS_P2;PMS_P1;PMS_P2;Temp;Humidity;BMP_temperature;BMP_pressure;BME280_temperature;BME280_humidity;BME280_pressure;Samples;Min_cycle;Max_cycle;Signal;HPM_P1;HPM_P2
2022/01/10 00:01:18;;;;;;;15.77;9.53;;;;;;;0.28;83.22;101007.91;5049681;28;20037;-87
2022/01/10 00:03:44;;;;;;;19.13;9.70;;;;;;;0.24;83.54;101011.22;5049274;28;20045;-88
2022/01/10 00:06:19;;;;;;;20.10;10.50;;;;;;;0.24;84.51;101006.09;5053118;28;20020;-88
2022/01/10 00:08:44;;;;;;;21.73;10.27;;;;;;;0.26;84.88;101010.41;5051338;28;20036;-88
2022/01/10 00:11:09;;;;;;;22.63;10.57;;;;;;;0.28;85.03;101002.78;5049752;28;20033;-89
2022/01/10 00:13:35;;;;;;;22.93;11.23;;;;;;;0.30;85.01;101012.22;5050181;28;20041;-88
2022/01/10 00:16:00;;;;;;;19.73;10.33;;;;;;;0.30;84.79;101013.91;5052599;28;20158;-88
2022/01/10 00:18:25;;;;;;;19.87;10.53;;;;;;;0.29;84.87;101018.16;5049979;28;20531;-88
2022/01/10 00:20:51;;;;;;;23.33;10.37;;;;;;;0.25;84.13;101023.19;5050636;28;20028;-88
2022/01/10 00:23:16;;;;;;;18.60;10.23;;;;;;;0.21;84.04;101031.63;5051050;28;20025;-88
2022/01/10 00:25:41;;;;;;;23.37;10.17;;;;;;;0.19;84.84;101043.53;5052506;28;20037;-88
2022/01/10 00:28:06;;;;;;;22.37;10.87;;;;;;;0.19;84.74;101038.41;5050235;28;20052;-88
2022/01/10 00:30:32;;;;;;;22.63;10.97;;;;;;;0.21;85.46;101046.97;5050589;28;20388;-88
2022/01/10 00:32:57;;;;;;;22.67;10.73;;;;;;;0.21;85.28;101052.09;5050815;28;20063;-88
2022/01/10 00:35:23;;;;;;;24.13;11.60;;;;;;;0.20;85.58;101045.25;5052239;28;20041;-88
2022/01/10 00:37:49;;;;;;;25.37;11.20;;;;;;;0.21;85.70;101044.41;5051822;28;20029;-88
2022/01/10 00:40:16;;;;;;;22.03;11.37;;;;;;;0.20;84.91;101050.38;5046354;28;20080;-88
2022/01/10 00:42:43;;;;;;;20.80;9.83;;;;;;;0.18;84.07;101050.34;5015545;28;20076;-88
2022/01/10 00:45:23;;;;;;;20.47;9.50;;;;;;;0.13;83.19;101057.94;5012020;28;20029;-88
2022/01/10 00:47:48;;;;;;;19.43;10.13;;;;;;;0.04;83.07;101050.06;5012733;28;20030;-88
2022/01/10 00:50:14;;;;;;;20.53;9.73;;;;;;;-0.03;83.12;101054.19;5030319;28;20456;-88
2022/01/10 00:52:40;;;;;;;21.47;10.30;;;;;;;-0.07;83.25;101057.50;5035639;28;20033;-88
2022/01/10 00:55:06;;;;;;;21.30;9.77;;;;;;;-0.12;82.73;101063.34;5032243;28;20034;-88
2022/01/10 00:57:31;;;;;;;18.13;10.27;;;;;;;-0.13;83.09;101062.50;5035239;28;20033;-88
2022/01/10 00:59:56;;;;;;;17.43;9.80;;;;;;;-0.15;82.78;101069.28;5030354;28;20040;-88
2022/01/10 01:02:22;;;;;;;23.77;11.30;;;;;;;-0.20;82.94;101075.97;5031501;28;20162;-88
2022/01/10 01:04:51;;;;;;;25.17;11.17;;;;;;;-0.24;83.51;101085.28;5032587;28;20026;-87
2022/01/10 01:07:16;;;;;;;22.90;12.23;;;;;;;-0.23;84.66;101086.13;5015946;28;20468;-88
2022/01/10 01:09:47;;;;;;;27.80;12.33;;;;;;;-0.19;84.65;101087.94;5033750;28;20104;-87
2022/01/10 01:12:19;;;;;;;27.60;12.03;;;;;;;-0.15;85.55;101099.97;5030330;28;20487;-87
2022/01/10 01:17:14;;;;;;;21.50;10.90;;;;;;;-0.13;83.76;101107.66;5032202;28;19967;-88
2022/01/10 01:25:12;;;;;;;21.80;11.13;;;;;;;-0.32;82.90;101120.00;5033772;28;20534;-88
2022/01/10 01:27:38;;;;;;;20.93;10.57;;;;;;;-0.38;82.79;101117.31;5012226;28;20064;-87
2022/01/10 01:30:06;;;;;;;21.03;9.50;;;;;;;-0.40;82.17;101129.19;5036735;28;20408;-88
2022/01/10 01:32:31;;;;;;;22.73;10.70;;;;;;;-0.42;83.38;101128.31;5013917;28;20465;-88
2022/01/10 01:35:03;;;;;;;22.57;10.43;;;;;;;-0.44;83.06;101135.06;5038655;28;20035;-88
2022/01/10 01:37:29;;;;;;;26.73;11.05;;;;;;;-0.49;83.35;101145.19;5032624;28;20021;-88
2022/01/10 01:39:54;;;;;;;20.87;10.90;;;;;;;-0.51;84.22;101140.00;5023350;28;20045;-88
2022/01/10 01:42:41;;;;;;;23.93;11.50;;;;;;;-0.51;84.57;101146.81;5050267;28;20035;-87
2022/01/10 01:45:09;;;;;;;24.07;11.30;;;;;;;-0.48;84.38;101157.97;5050585;28;20488;-88
2022/01/10 01:47:36;;;;;;;25.97;13.03;;;;;;;-0.47;85.19;101162.28;5047910;28;20036;-87
2022/01/10 01:50:02;;;;;;;24.27;12.47;;;;;;;-0.44;85.90;101174.28;5049136;28;20112;-88
2022/01/10 01:52:28;;;;;;;22.30;11.43;;;;;;;-0.43;84.40;101176.03;5048791;28;20064;-88
2022/01/10 01:54:53;;;;;;;25.67;11.40;;;;;;;-0.46;83.98;101174.22;5050789;28;20455;-88
2022/01/10 01:57:19;;;;;;;20.73;10.93;;;;;;;-0.53;83.21;101172.38;5049375;28;20370;-88
2022/01/10 01:59:45;;;;;;;27.03;11.10;;;;;;;-0.60;83.28;101180.69;5049826;28;20503;-88
2022/01/10 02:02:10;;;;;;;21.00;11.40;;;;;;;-0.66;82.98;101183.06;5049181;28;20052;-88
2022/01/10 02:04:35;;;;;;;22.60;10.77;;;;;;;-0.68;83.21;101187.28;5050843;28;20032;-88
2022/01/10 02:07:01;;;;;;;25.53;11.70;;;;;;;-0.71;83.58;101192.31;5049962;28;20044;-88
2022/01/10 02:09:26;;;;;;;21.43;10.97;;;;;;;-0.71;83.35;101192.31;5047577;28;20488;-88
2022/01/10 02:11:52;;;;;;;20.77;11.07;;;;;;;-0.75;83.31;101191.38;5048667;28;20542;-87
2022/01/10 02:14:18;;;;;;;22.63;11.50;;;;;;;-0.75;83.56;101188.81;5048979;28;20024;-88
2022/01/10 02:16:45;;;;;;;22.50;11.40;;;;;;;-0.77;83.94;101187.94;5049402;28;20032;-88
2022/01/10 02:19:11;;;;;;;23.30;11.47;;;;;;;-0.81;83.84;101194.63;5046381;28;20392;-88
2022/01/10 02:21:36;;;;;;;31.30;13.23;;;;;;;-0.81;84.36;101194.63;5048714;28;20052;-88
2022/01/10 02:24:03;;;;;;;38.60;16.27;;;;;;;-0.76;85.03;101197.28;5049037;28;20067;-88
2022/01/10 02:26:29;;;;;;;47.20;20.60;;;;;;;-0.71;85.05;101205.09;5049030;28;20021;-87
2022/01/10 02:28:54;;;;;;;41.70;20.37;;;;;;;-0.69;85.22;101211.13;5049325;28;20033;-88
2022/01/10 02:31:19;;;;;;;29.60;14.97;;;;;;;-0.69;84.53;101208.56;5049387;28;20029;-88
2022/01/10 02:33:47;;;;;;;29.23;13.33;;;;;;;-0.70;84.64;101211.94;5058785;28;20036;-88
2022/01/10 02:36:24;;;;;;;34.17;15.73;;;;;;;-0.65;85.56;101226.56;5048462;28;20029;-88
2022/01/10 02:39:00;;;;;;;33.97;15.47;;;;;;;-0.59;86.06;101228.41;5048866;28;20037;-88
2022/01/10 02:41:31;;;;;;;31.37;14.17;;;;;;;-0.54;85.63;101228.53;5045724;28;20507;-88
2022/01/10 02:43:59;;;;;;;28.52;14.07;;;;;;;-0.53;86.38;101238.81;5049543;28;20090;-88
2022/01/10 02:46:25;;;;;;;28.10;12.07;;;;;;;-0.53;84.29;101245.59;5049547;28;20077;-88
2022/01/10 02:48:51;;;;;;;28.67;12.53;;;;;;;-0.59;83.58;101240.31;5047943;28;20025;-88
2022/01/10 02:51:16;;;;;;;25.97;12.83;;;;;;;-0.65;84.16;101251.25;5048585;28;20040;-87
2022/01/10 02:53:42;;;;;;;25.17;13.27;;;;;;;-0.66;83.89;101252.06;5048299;28;20606;-88
2022/01/10 02:56:07;;;;;;;26.03;13.47;;;;;;;-0.67;84.55;101252.88;5049262;28;20419;-88
2022/01/10 02:58:32;;;;;;;23.73;12.23;;;;;;;-0.69;84.02;101262.22;5050029;28;20032;-88
2022/01/10 03:00:58;;;;;;;26.97;13.67;;;;;;;-0.69;83.92;101269.88;5047654;28;20031;-88
2022/01/10 03:03:29;;;;;;;30.37;13.57;;;;;;;-0.73;83.80;101268.91;5049350;28;20396;-88
2022/01/10 03:05:54;;;;;;;27.80;13.77;;;;;;;-0.75;83.95;101274.81;5065062;28;20033;-88
2022/01/10 03:08:20;;;;;;;26.00;12.63;;;;;;;-0.74;84.15;101290.19;5048222;28;20040;-88
2022/01/10 03:10:45;;;;;;;24.97;13.03;;;;;;;-0.74;83.83;101287.63;5046694;28;20079;-88
2022/01/10 03:13:10;;;;;;;24.87;13.03;;;;;;;-0.75;83.24;101305.47;5046575;28;20033;-88
2022/01/10 03:15:36;;;;;;;26.70;12.83;;;;;;;-0.81;83.94;101296.81;5047597;28;20443;-88
2022/01/10 03:18:01;;;;;;;27.67;14.00;;;;;;;-0.82;83.96;101295.06;5048937;28;20470;-88
2022/01/10 03:20:26;;;;;;;26.93;14.33;;;;;;;-0.78;85.01;101296.03;5049266;28;20033;-88
2022/01/10 03:22:52;;;;;;;24.97;13.13;;;;;;;-0.77;83.44;101297.78;5049238;28;20040;-88
2022/01/10 03:25:19;;;;;;;31.00;13.53;;;;;;;-0.79;83.63;101313.03;5046868;28;20498;-88
2022/01/10 03:27:45;;;;;;;25.80;13.20;;;;;;;-0.79;84.85;101325.81;5049154;28;20052;-88
2022/01/10 03:30:11;;;;;;;24.20;12.83;;;;;;;-0.75;84.77;101315.69;5049010;28;20051;-88
2022/01/10 03:32:37;;;;;;;25.77;13.43;;;;;;;-0.72;85.31;101318.34;5047293;28;20104;-89
2022/01/10 03:35:05;;;;;;;27.10;13.17;;;;;;;-0.71;84.88;101322.63;5047866;28;20037;-88
2022/01/10 03:37:30;;;;;;;26.00;13.47;;;;;;;-0.66;84.90;101326.16;5048632;28;20013;-88
2022/01/10 03:39:55;;;;;;;29.70;13.53;;;;;;;-0.62;84.89;101328.88;5047397;28;20110;-88
2022/01/10 03:42:21;;;;;;;25.93;12.73;;;;;;;-0.58;85.32;101334.94;5048550;28;20063;-88
2022/01/10 03:44:46;;;;;;;26.57;12.47;;;;;;;-0.56;85.01;101343.50;5046269;28;20111;-88
2022/01/10 03:47:13;;;;;;;26.20;12.67;;;;;;;-0.55;84.89;101355.47;5048394;28;20044;-87
2022/01/10 03:49:38;;;;;;;27.43;13.17;;;;;;;-0.55;84.38;101360.56;5049132;28;20033;-88
2022/01/10 03:52:04;;;;;;;27.00;13.00;;;;;;;-0.56;85.14;101356.28;5049471;28;20063;-88
2022/01/10 03:54:30;;;;;;;27.03;12.80;;;;;;;-0.55;84.56;101359.69;5068299;28;20587;-88
2022/01/10 03:56:55;;;;;;;26.80;12.93;;;;;;;-0.56;85.20;101366.50;5052750;28;20036;-88
2022/01/10 03:59:21;;;;;;;26.10;13.17;;;;;;;-0.55;85.38;101365.69;5052615;28;20021;-88
2022/01/10 04:01:46;;;;;;;25.27;13.23;;;;;;;-0.50;85.68;101373.47;5052430;28;20086;-87
2022/01/10 04:04:12;;;;;;;28.70;12.67;;;;;;;-0.48;85.13;101377.78;5052527;28;20365;-88
2022/01/10 04:06:38;;;;;;;24.50;12.70;;;;;;;-0.45;85.59;101392.38;5052419;28;20384;-88
2022/01/10 04:09:04;;;;;;;25.83;13.07;;;;;;;-0.45;85.04;101387.25;5051754;28;20017;-88
2022/01/10 04:11:29;;;;;;;24.87;12.00;;;;;;;-0.49;84.89;101391.41;5051329;28;20472;-88
2022/01/10 04:13:55;;;;;;;26.70;11.53;;;;;;;-0.51;84.72;101387.06;5051548;28;20056;-88
2022/01/10 04:16:20;;;;;;;23.77;11.37;;;;;;;-0.54;84.15;101392.97;5051495;28;20102;-88
2022/01/10 04:18:46;;;;;;;26.63;11.43;;;;;;;-0.56;83.93;101399.72;5051303;28;20052;-88
2022/01/10 04:21:11;;;;;;;28.77;13.67;;;;;;;-0.55;84.56;101401.47;5049709;28;20506;-88
2022/01/10 04:23:36;;;;;;;28.23;12.57;;;;;;;-0.52;85.42;101401.56;5052407;28;20127;-88
2022/01/10 04:26:02;;;;;;;25.20;12.90;;;;;;;-0.50;84.85;101405.00;5051949;28;20075;-88
2022/01/10 04:28:29;;;;;;;26.03;12.53;;;;;;;-0.51;84.91;101408.38;5052359;28;20100;-88
2022/01/10 04:30:54;;;;;;;32.90;12.87;;;;;;;-0.50;85.42;101415.22;5052304;28;20067;-88
2022/01/10 04:33:20;;;;;;;26.83;13.27;;;;;;;-0.50;85.49;101424.59;5050819;28;20541;-88
2022/01/10 04:35:47;;;;;;;30.90;12.70;;;;;;;-0.48;85.86;101416.13;5049734;28;20043;-88
2022/01/10 04:38:14;;;;;;;23.20;12.53;;;;;;;-0.43;85.95;101425.63;5051807;28;20020;-88
2022/01/10 04:40:39;;;;;;;26.37;12.23;;;;;;;-0.40;86.21;101435.94;5042764;28;20057;-88
2022/01/10 04:43:05;;;;;;;27.67;13.33;;;;;;;-0.37;85.95;101441.16;5032316;28;20021;-87
2022/01/10 04:45:30;;;;;;;27.20;12.70;;;;;;;-0.33;86.00;101443.84;5021145;28;20037;-87
2022/01/10 04:47:55;;;;;;;25.10;12.90;;;;;;;-0.31;86.02;101439.66;5020852;28;20060;-88
2022/01/10 04:52:47;;;;;;;25.20;12.10;;;;;;;-0.30;86.01;101448.16;5036482;28;20154;-88
2022/01/10 04:55:16;;;;;;;26.87;12.87;;;;;;;-0.30;85.90;101455.84;5034289;28;20092;-88
2022/01/10 04:57:42;;;;;;;29.03;12.53;;;;;;;-0.29;86.04;101470.34;5019304;28;20408;-88
2022/01/10 05:00:10;;;;;;;24.83;12.90;;;;;;;-0.25;86.49;101467.06;5033301;28;20025;-87
2022/01/10 05:02:36;;;;;;;31.13;14.17;;;;;;;-0.20;86.66;101478.31;5032805;28;20117;-88
2022/01/10 05:05:02;;;;;;;26.17;13.20;;;;;;;-0.14;86.96;101489.53;5045542;28;20025;-88
2022/01/10 05:07:27;;;;;;;28.40;13.00;;;;;;;-0.10;86.19;101486.22;5039802;28;20029;-87
2022/01/10 05:09:53;;;;;;;30.07;13.27;;;;;;;-0.06;86.46;101499.16;5015206;28;20033;-87
2022/01/10 05:12:20;;;;;;;26.00;12.93;;;;;;;-0.05;86.33;101512.81;5013393;28;21268;-88
2022/01/10 05:14:45;;;;;;;27.07;13.10;;;;;;;-0.03;86.37;101522.25;5041854;28;20035;-88
2022/01/10 05:17:11;;;;;;;23.73;12.67;;;;;;;-0.05;85.93;101520.50;5031281;28;20393;-88
2022/01/10 05:19:36;;;;;;;24.63;12.30;;;;;;;-0.06;86.18;101518.75;5035027;28;20051;-88
2022/01/10 05:22:02;;;;;;;25.30;12.27;;;;;;;-0.05;86.22;101521.34;5020340;28;20111;-88
2022/01/10 05:24:28;;;;;;;25.70;12.70;;;;;;;-0.02;86.34;101525.72;5046972;28;20029;-88
2022/01/10 05:26:53;;;;;;;22.70;12.40;;;;;;;0.02;86.14;101537.75;5043685;28;20025;-88
2022/01/10 05:29:19;;;;;;;24.17;12.83;;;;;;;0.05;86.61;101545.50;5019635;28;20020;-87
2022/01/10 05:31:44;;;;;;;28.97;13.40;;;;;;;0.07;86.04;101543.00;5036087;28;20021;-88
2022/01/10 05:34:10;;;;;;;26.27;12.50;;;;;;;0.07;85.90;101548.13;5037976;28;20033;-88
2022/01/10 05:36:35;;;;;;;25.17;13.10;;;;;;;0.09;86.14;101556.69;5042755;28;20029;-88
2022/01/10 05:39:00;;;;;;;26.37;13.27;;;;;;;0.11;86.19;101558.50;5037216;28;20096;-88
2022/01/10 05:41:25;;;;;;;27.90;12.67;;;;;;;0.10;86.21;101574.66;5029246;28;20052;-88
2022/01/10 05:43:51;;;;;;;24.80;12.80;;;;;;;0.11;86.40;101578.97;5032447;28;20029;-89
2022/01/10 05:46:19;;;;;;;24.30;12.60;;;;;;;0.13;86.22;101582.44;5029540;28;20032;-88
2022/01/10 05:48:47;;;;;;;23.13;12.10;;;;;;;0.13;85.81;101587.56;5027964;28;20025;-87
2022/01/10 05:51:16;;;;;;;22.53;12.73;;;;;;;0.16;85.89;101591.03;5011047;28;20040;-87
2022/01/10 05:53:42;;;;;;;28.23;12.67;;;;;;;0.16;85.89;101591.03;5009782;28;20087;-88
2022/01/10 05:56:08;;;;;;;22.83;12.27;;;;;;;0.17;86.07;101593.63;5033236;28;20025;-88
2022/01/10 05:58:33;;;;;;;24.87;12.27;;;;;;;0.18;86.25;101599.59;5031536;28;20013;-88
2022/01/10 06:00:58;;;;;;;26.30;13.00;;;;;;;0.18;85.83;101590.22;5024262;28;20516;-88
2022/01/10 06:03:24;;;;;;;23.50;12.93;;;;;;;0.18;86.13;101589.34;5033556;28;20029;-88
2022/01/10 06:05:49;;;;;;;26.97;12.83;;;;;;;0.18;85.86;101592.78;5022904;28;20104;-88
2022/01/10 06:08:14;;;;;;;25.37;12.60;;;;;;;0.19;85.83;101597.09;5015936;28;20025;-89
2022/01/10 06:10:40;;;;;;;26.77;12.43;;;;;;;0.20;85.69;101603.06;5032279;28;20031;-88
2022/01/10 06:13:06;;;;;;;29.73;12.40;;;;;;;0.19;86.29;101606.44;5032292;28;20026;-89
2022/01/10 06:15:31;;;;;;;27.47;12.43;;;;;;;0.19;85.72;101611.56;5027215;28;20029;-88
2022/01/10 06:17:57;;;;;;;28.80;13.87;;;;;;;0.18;85.96;101609.81;5031564;28;20028;-88
2022/01/10 06:20:23;;;;;;;26.43;12.53;;;;;;;0.18;86.13;101614.94;5026050;28;20029;-88
2022/01/10 06:22:48;;;;;;;27.33;12.60;;;;;;;0.17;85.92;101628.59;5029118;28;20033;-88
2022/01/10 06:25:17;;;;;;;27.87;13.03;;;;;;;0.18;85.47;101625.16;5012237;28;20112;-88
2022/01/10 06:27:42;;;;;;;23.07;12.63;;;;;;;0.19;85.60;101632.91;5029907;28;20055;-88
2022/01/10 06:30:08;;;;;;;24.27;12.57;;;;;;;0.19;85.31;101644.81;5026459;28;20025;-88
2022/01/10 06:32:34;;;;;;;22.83;12.30;;;;;;;0.19;86.17;101647.38;5031583;28;20033;-88
2022/01/10 06:34:59;;;;;;;28.33;13.20;;;;;;;0.19;86.12;101655.06;5030148;28;20082;-89
2022/01/10 06:37:25;;;;;;;26.70;13.70;;;;;;;0.19;85.41;101663.63;5030852;28;20017;-88
2022/01/10 06:39:51;;;;;;;21.57;12.50;;;;;;;0.19;85.88;101662.75;5030149;28;20094;-88
2022/01/10 06:42:17;;;;;;;23.77;12.13;;;;;;;0.21;85.63;101671.34;5047722;28;20048;-88
2022/01/10 06:44:43;;;;;;;25.87;12.57;;;;;;;0.21;85.56;101666.22;5045410;28;20464;-88
2022/01/10 06:47:08;;;;;;;28.00;12.77;;;;;;;0.22;85.93;101673.06;5048712;28;20472;-88
2022/01/10 06:49:34;;;;;;;29.13;13.07;;;;;;;0.23;85.93;101685.03;5048017;28;20063;-88
2022/01/10 06:51:59;;;;;;;27.30;12.57;;;;;;;0.24;85.86;101679.09;5050612;28;20107;-88
2022/01/10 06:54:25;;;;;;;29.77;12.83;;;;;;;0.24;85.49;101682.56;5050633;28;20107;-88
2022/01/10 06:56:51;;;;;;;24.73;12.23;;;;;;;0.27;85.71;101695.41;5032475;28;20071;-89
2022/01/10 06:59:17;;;;;;;23.27;12.60;;;;;;;0.28;85.70;101703.97;5050282;28;20083;-88
2022/01/10 07:01:42;;;;;;;25.60;12.70;;;;;;;0.28;85.86;101711.66;5033031;28;20029;-88
2022/01/10 07:04:09;;;;;;;24.13;12.57;;;;;;;0.26;85.77;101714.16;5051122;28;20031;-88
2022/01/10 07:06:34;;;;;;;27.67;13.17;;;;;;;0.24;85.83;101713.25;5033118;28;20028;-89
2022/01/10 07:08:59;;;;;;;27.80;13.17;;;;;;;0.24;85.77;101722.63;5050675;28;20024;-88
2022/01/10 07:11:24;;;;;;;23.90;12.80;;;;;;;0.22;85.62;101725.13;5051007;28;20025;-89
2022/01/10 07:13:50;;;;;;;25.07;12.90;;;;;;;0.21;85.85;101727.63;5050047;28;20029;-88
2022/01/10 07:16:15;;;;;;;32.03;13.13;;;;;;;0.23;85.90;101738.78;5030812;28;20029;-88
2022/01/10 07:18:41;;;;;;;28.77;13.87;;;;;;;0.23;86.56;101744.78;5032575;28;20483;-88
2022/01/10 07:21:06;;;;;;;25.40;13.47;;;;;;;0.25;85.98;101747.38;5032977;28;20024;-88
2022/01/10 07:23:31;;;;;;;25.73;13.37;;;;;;;0.27;85.97;101761.09;5050337;28;20385;-89
2022/01/10 07:25:57;;;;;;;25.53;12.63;;;;;;;0.26;86.43;101762.78;5049121;28;20043;-88
2022/01/10 07:28:22;;;;;;;25.83;13.03;;;;;;;0.29;85.80;101774.81;5052332;28;20100;-88
2022/01/10 07:30:49;;;;;;;28.27;13.13;;;;;;;0.30;86.17;101772.31;5036203;28;20029;-88
2022/01/10 07:33:15;;;;;;;26.03;12.67;;;;;;;0.30;86.24;101774.00;5054905;28;20442;-88
2022/01/10 07:35:41;;;;;;;22.97;12.53;;;;;;;0.31;86.25;101783.44;5053343;28;20040;-88
2022/01/10 07:38:06;;;;;;;25.53;13.60;;;;;;;0.32;86.75;101791.97;5036151;28;20025;-89
2022/01/10 07:40:31;;;;;;;25.17;12.43;;;;;;;0.31;86.10;101793.66;5051690;28;20106;-88
2022/01/10 07:42:56;;;;;;;25.87;12.67;;;;;;;0.33;86.50;101793.69;5035511;28;20499;-88
2022/01/10 07:45:22;;;;;;;26.83;13.67;;;;;;;0.33;85.93;101794.59;5042183;28;20060;-88
2022/01/10 07:47:48;;;;;;;29.63;12.23;;;;;;;0.32;86.02;101795.41;5020407;28;20061;-90
2022/01/10 07:50:13;;;;;;;24.03;13.10;;;;;;;0.30;85.89;101803.00;5040591;28;20047;-89
2022/01/10 07:52:38;;;;;;;26.83;12.23;;;;;;;0.28;86.39;101811.47;5027072;28;20125;-89
2022/01/10 07:55:05;;;;;;;29.10;13.63;;;;;;;0.24;85.87;101815.63;5041901;28;20029;-89
2022/01/10 07:57:30;;;;;;;26.83;12.87;;;;;;;0.24;86.16;101827.53;5053071;28;20025;-89
2022/01/10 07:59:55;;;;;;;25.73;12.87;;;;;;;0.23;86.13;101828.34;5042099;28;20564;-89
2022/01/10 08:02:21;;;;;;;26.60;13.50;;;;;;;0.25;86.21;101827.63;5040714;28;20036;-88
2022/01/10 08:04:47;;;;;;;23.50;12.40;;;;;;;0.26;86.00;101831.88;5037327;28;20029;-89
2022/01/10 08:07:13;;;;;;;20.63;12.13;;;;;;;0.26;86.02;101838.69;5019399;28;20041;-90
2022/01/10 08:09:38;;;;;;;24.67;12.47;;;;;;;0.25;86.53;101847.19;5035457;28;20029;-89
2022/01/10 08:12:04;;;;;;;25.73;12.07;;;;;;;0.26;86.10;101849.78;5023101;28;20105;-90
2022/01/10 08:14:30;;;;;;;21.63;12.30;;;;;;;0.27;86.09;101855.81;5039309;28;20109;-89
2022/01/10 08:16:56;;;;;;;24.27;12.47;;;;;;;0.27;86.42;101850.69;5034128;28;20029;-90
2022/01/10 08:19:22;;;;;;;21.87;12.03;;;;;;;0.26;86.01;101864.28;5020288;28;20025;-89
2022/01/10 08:21:48;;;;;;;22.73;12.27;;;;;;;0.26;86.54;101874.53;5038587;28;20020;-90
2022/01/10 08:24:13;;;;;;;25.27;12.30;;;;;;;0.27;86.21;101878.84;5037428;28;20029;-89
2022/01/10 08:26:40;;;;;;;21.67;12.23;;;;;;;0.28;86.13;101878.03;5037556;28;20181;-90
2022/01/10 08:29:05;;;;;;;22.53;11.97;;;;;;;0.30;85.97;101877.25;5035905;28;20329;-89
2022/01/10 08:31:31;;;;;;;23.10;11.73;;;;;;;0.31;86.46;101883.25;5040369;28;20108;-89
2022/01/10 08:33:56;;;;;;;20.47;11.83;;;;;;;0.34;86.04;101902.94;5045414;28;20088;-89
2022/01/10 08:36:21;;;;;;;24.50;12.00;;;;;;;0.36;85.87;101906.44;5037360;28;20044;-90
2022/01/10 08:38:46;;;;;;;24.03;12.30;;;;;;;0.37;86.57;101914.16;5032793;28;20080;-89
2022/01/10 08:41:12;;;;;;;22.23;12.20;;;;;;;0.40;86.23;101919.38;5041568;28;20068;-90
2022/01/10 08:43:37;;;;;;;22.87;12.70;;;;;;;0.41;86.07;101926.25;5052083;28;20032;-89
2022/01/10 08:46:03;;;;;;;24.33;11.60;;;;;;;0.43;85.98;101939.06;5052402;28;20082;-89
2022/01/10 08:48:29;;;;;;;25.53;12.10;;;;;;;0.45;86.25;101940.00;5053887;28;20084;-90
2022/01/10 08:50:55;;;;;;;21.63;12.17;;;;;;;0.48;86.47;101947.78;5053589;28;20379;-89
2022/01/10 08:53:21;;;;;;;24.20;12.07;;;;;;;0.51;86.26;101954.72;5051735;28;20424;-90
2022/01/10 08:55:47;;;;;;;23.57;11.87;;;;;;;0.53;86.01;101953.94;5053789;28;20086;-89
2022/01/10 08:58:12;;;;;;;24.13;12.90;;;;;;;0.55;85.74;101960.00;5052423;28;20036;-90
2022/01/10 09:00:38;;;;;;;22.60;12.13;;;;;;;0.56;85.59;101973.66;5053529;28;20459;-90
2022/01/10 09:03:03;;;;;;;22.97;12.23;;;;;;;0.55;85.52;101980.47;5052243;28;20028;-89
2022/01/10 09:05:30;;;;;;;26.10;13.07;;;;;;;0.49;85.04;101982.81;5052028;28;20047;-89
2022/01/10 09:07:58;;;;;;;26.53;12.73;;;;;;;0.48;85.75;101985.34;5053497;28;20452;-89
2022/01/10 09:10:25;;;;;;;25.57;12.43;;;;;;;0.48;85.39;101987.91;5052947;28;20074;-89
2022/01/10 09:12:50;;;;;;;26.97;13.37;;;;;;;0.48;85.41;101991.31;5050768;28;20143;-89
2022/01/10 09:15:15;;;;;;;24.57;12.33;;;;;;;0.50;85.81;101992.25;5053523;28;20124;-90
2022/01/10 09:17:41;;;;;;;25.80;12.87;;;;;;;0.49;85.47;102002.44;5052043;28;20021;-89
2022/01/10 09:20:07;;;;;;;25.33;12.90;;;;;;;0.48;85.09;102004.13;5051859;28;20399;-89
2022/01/10 09:22:33;;;;;;;23.80;12.37;;;;;;;0.50;85.54;102004.19;5053211;28;20024;-89
2022/01/10 09:24:59;;;;;;;24.30;12.37;;;;;;;0.49;85.17;102003.31;5053096;28;20039;-89
2022/01/10 09:27:25;;;;;;;27.53;13.40;;;;;;;0.51;85.60;102008.50;5052813;28;20025;-90
2022/01/10 09:29:50;;;;;;;24.97;12.70;;;;;;;0.52;85.30;102010.22;5049938;28;20029;-89
2022/01/10 09:32:16;;;;;;;24.37;12.70;;;;;;;0.54;84.78;102008.56;5052915;28;20391;-89
2022/01/10 09:34:41;;;;;;;27.57;13.23;;;;;;;0.55;85.22;102010.31;5052958;28;20025;-90
2022/01/10 09:37:06;;;;;;;26.27;13.07;;;;;;;0.56;84.92;102012.06;5052189;28;20032;-89
2022/01/10 09:39:32;;;;;;;23.67;12.33;;;;;;;0.56;84.68;102018.06;5050740;28;20041;-89
2022/01/10 09:41:57;;;;;;;25.03;12.73;;;;;;;0.58;84.43;102021.56;5052832;28;20025;-89
2022/01/10 09:44:23;;;;;;;22.90;11.87;;;;;;;0.62;85.13;102017.41;5052416;28;20056;-89
2022/01/10 09:46:49;;;;;;;21.10;10.83;;;;;;;0.66;84.78;102029.50;5050986;28;20041;-89
2022/01/10 09:49:15;;;;;;;24.10;11.93;;;;;;;0.70;84.69;102026.22;5051975;28;20028;-89
2022/01/10 09:51:40;;;;;;;20.90;11.20;;;;;;;0.74;84.11;102027.22;5049992;28;20036;-89
2022/01/10 09:54:05;;;;;;;21.40;10.67;;;;;;;0.74;84.26;102033.19;5051240;28;20029;-89
2022/01/10 09:56:31;;;;;;;20.90;11.37;;;;;;;0.80;84.04;102039.34;5050388;28;20033;-90
2022/01/10 09:58:58;;;;;;;23.27;11.93;;;;;;;0.79;84.28;102038.47;5049937;28;20033;-90
2022/01/10 10:01:24;;;;;;;21.03;10.57;;;;;;;0.81;84.49;102048.78;5046805;28;20037;-89
2022/01/10 10:03:50;;;;;;;24.20;11.10;;;;;;;0.85;84.19;102058.31;5048390;28;20040;-89
2022/01/10 10:06:17;;;;;;;21.50;10.83;;;;;;;0.89;84.43;102062.72;5048209;28;20531;-89
2022/01/10 10:08:44;;;;;;;23.30;11.47;;;;;;;0.93;84.37;102059.44;5046511;28;20468;-88
2022/01/10 10:11:11;;;;;;;21.73;11.17;;;;;;;0.94;84.15;102062.88;5043822;28;20033;-88
2022/01/10 10:13:54;;;;;;;21.30;10.97;;;;;;;0.93;83.87;102064.56;5043813;28;20075;-90
2022/01/10 10:16:21;;;;;;;24.10;11.23;;;;;;;0.93;83.39;102073.94;5049497;28;20325;-89
2022/01/10 10:18:47;;;;;;;23.17;11.33;;;;;;;0.89;83.72;102080.66;5051442;28;20040;-89
2022/01/10 10:21:20;;;;;;;20.77;11.17;;;;;;;0.88;83.82;102081.47;5049269;28;20415;-90
2022/01/10 10:23:48;;;;;;;22.73;10.67;;;;;;;0.86;83.67;102089.09;5049136;28;20029;-90
2022/01/10 10:26:19;;;;;;;21.00;10.83;;;;;;;0.85;83.60;102094.19;5047808;28;20025;-89
2022/01/10 10:28:47;;;;;;;24.70;11.17;;;;;;;0.86;84.13;102103.59;5049477;28;20056;-89
2022/01/10 10:31:13;;;;;;;21.93;10.53;;;;;;;0.86;83.96;102101.91;5046822;28;20446;-90
2022/01/10 10:33:50;;;;;;;20.30;10.20;;;;;;;0.87;83.75;102108.78;5050776;28;20082;-90
2022/01/10 10:36:16;;;;;;;23.60;10.63;;;;;;;0.86;83.73;102108.72;5047872;28;20106;-89
2022/01/10 10:38:42;;;;;;;21.87;10.63;;;;;;;0.84;83.82;102116.34;5047900;28;20047;-89
2022/01/10 10:41:07;;;;;;;21.70;10.53;;;;;;;0.87;84.34;102115.59;5048650;28;20471;-89
2022/01/10 10:43:35;;;;;;;21.77;10.47;;;;;;;0.88;84.48;102119.88;5047964;28;20063;-90
2022/01/10 10:46:02;;;;;;;25.73;10.03;;;;;;;0.89;84.50;102131.88;5045578;28;20425;-89
2022/01/10 10:48:28;;;;;;;21.90;10.27;;;;;;;0.94;83.72;102132.06;5046568;28;20251;-89
2022/01/10 10:50:59;;;;;;;21.67;10.67;;;;;;;0.96;84.53;102133.84;5046276;28;20028;-90
2022/01/10 10:53:27;;;;;;;21.70;10.17;;;;;;;0.97;84.29;102133.03;5043759;28;20088;-90
2022/01/10 10:56:01;;;;;;;19.93;9.40;;;;;;;1.00;84.24;102142.50;5047445;28;20502;-89
2022/01/10 10:58:27;;;;;;;19.60;10.23;;;;;;;1.04;84.55;102147.78;5046726;28;20043;-89
2022/01/10 11:00:56;;;;;;;20.37;10.00;;;;;;;1.08;84.33;102145.34;5043992;28;20025;-89
2022/01/10 11:03:23;;;;;;;20.73;10.20;;;;;;;1.10;84.50;102141.16;5045747;28;20053;-90
2022/01/10 11:05:49;;;;;;;20.10;9.67;;;;;;;1.15;84.37;102147.31;5048068;28;20044;-89
2022/01/10 11:08:15;;;;;;;20.23;10.07;;;;;;;1.21;84.52;102153.50;5046886;28;20037;-89
2022/01/10 11:10:41;;;;;;;22.00;10.03;;;;;;;1.30;84.73;102150.38;5047396;28;20031;-89
2022/01/10 11:13:08;;;;;;;19.17;9.53;;;;;;;1.36;84.23;102157.41;5047766;28;20114;-90
2022/01/10 11:15:39;;;;;;;20.63;9.50;;;;;;;1.40;83.98;102153.25;5048260;28;20056;-89
2022/01/10 11:18:07;;;;;;;20.53;9.20;;;;;;;1.40;83.20;102159.28;5048634;28;20032;-88
2022/01/10 11:20:44;;;;;;;19.10;9.47;;;;;;;1.36;83.32;102158.31;5048871;28;20032;-89